RJSH(METAR)
02/28 07:00
METAR RJSH 272200Z 22009KT 9999 FEW030 M07/M09 Q1028 RMK 1CU030
A3037=
戻る
トップページへ戻る
IMOC Co,.Ltd.